Time;durP1;ratioP1;P1;durP2;ratioP2;P2;SDS_P1;SDS_P2;PMS_P1;PMS_P2;Temp;Humidity;BMP_temperature;BMP_pressure;BME280_temperature;BME280_humidity;BME280_pressure;Samples;Min_cycle;Max_cycle;Signal;HPM_P1;HPM_P2
2021/05/31 00:00:49;;;;;;;7.75;3.67;;;5.30;99.90;;;3.79;100.00;102377.22;4898480;28;20498;-78
2021/05/31 00:03:15;;;;;;;8.60;3.70;;;;;;;3.79;100.00;102380.69;4918193;28;20103;-78
2021/05/31 00:05:41;;;;;;;9.23;3.83;;;5.30;99.90;;;3.72;100.00;102386.72;4911664;28;20073;-78
2021/05/31 00:08:08;;;;;;;9.70;3.65;;;5.20;99.90;;;3.65;100.00;102388.41;4858697;28;20087;-78
2021/05/31 00:10:34;;;;;;;6.03;2.95;;;5.10;99.90;;;3.57;100.00;102381.41;4937719;28;20139;-78
2021/05/31 00:13:07;;;;;;;10.80;3.30;;;5.10;99.90;;;3.55;100.00;102376.16;4944880;28;20078;-78
2021/05/31 00:15:33;;;;;;;6.07;2.80;;;5.20;99.90;;;3.64;100.00;102375.38;4901616;28;20134;-79
2021/05/31 00:18:00;;;;;;;10.43;4.03;;;5.20;99.90;;;3.63;100.00;102368.44;4923503;28;20077;-78
2021/05/31 00:20:26;;;;;;;10.35;3.97;;;5.20;99.90;;;3.61;100.00;102368.41;4910339;28;20683;-78
2021/05/31 00:23:01;;;;;;;8.05;3.20;;;5.10;99.90;;;3.42;100.00;102380.38;4886350;28;20521;-78
2021/05/31 00:25:27;;;;;;;8.85;3.40;;;4.90;99.90;;;3.20;100.00;102373.22;4920043;28;20064;-78
2021/05/31 00:27:53;;;;;;;7.10;3.00;;;4.70;99.90;;;3.16;100.00;102376.66;4911882;28;20076;-78
2021/05/31 00:30:23;;;;;;;7.07;3.00;;;4.80;99.90;;;3.33;100.00;102375.09;4902923;28;20526;-78
2021/05/31 00:32:53;;;;;;;9.70;3.58;;;4.90;99.90;;;3.43;100.00;102369.09;4928304;28;20131;-79
2021/05/31 00:35:20;;;;;;;14.85;4.47;;;5.00;99.90;;;3.51;100.00;102378.72;4910487;28;20096;-78
2021/05/31 00:37:55;;;;;;;8.95;3.40;;;5.00;99.90;;;3.39;100.00;102384.69;4907134;28;20074;-78
2021/05/31 00:40:24;;;;;;;5.80;2.78;;;4.50;99.90;;;2.79;99.43;102371.03;4890982;28;20156;-78
2021/05/31 00:42:50;;;;;;;7.18;3.10;;;4.30;99.90;;;2.59;100.00;102383.78;4895903;28;20214;-78
2021/05/31 00:45:21;;;;;;;7.32;2.88;;;4.20;99.90;;;2.50;100.00;102374.13;4921912;28;20079;-78
2021/05/31 00:47:48;;;;;;;5.50;3.15;;;4.10;99.90;;;2.45;100.00;102373.22;4902966;28;20063;-78
2021/05/31 00:50:15;;;;;;;5.35;2.53;;;4.00;99.90;;;2.39;100.00;102373.13;4897659;28;20062;-78
2021/05/31 00:52:41;;;;;;;7.55;3.05;;;4.00;99.90;;;2.46;100.00;102372.34;4875383;28;20089;-78
2021/05/31 00:55:15;;;;;;;3.63;2.47;;;4.10;99.90;;;2.56;100.00;102373.34;4895737;28;20093;-78
2021/05/31 00:57:42;;;;;;;5.78;2.72;;;4.20;99.90;;;2.65;100.00;102365.66;4907482;28;20076;-78
2021/05/31 01:00:09;;;;;;;4.57;2.67;;;4.30;99.90;;;2.65;100.00;102363.91;4886250;28;20078;-78
2021/05/31 01:02:37;;;;;;;7.45;3.47;;;4.30;99.90;;;2.93;100.00;102372.06;4914279;28;20180;-78
2021/05/31 01:05:06;;;;;;;9.45;3.88;;;4.60;99.90;;;3.06;100.00;102366.13;4906184;28;20125;-77
2021/05/31 01:07:49;;;;;;;10.00;3.95;;;4.50;99.90;;;3.02;100.00;102369.56;4949255;28;20090;-79
2021/05/31 01:10:36;;;;;;;7.95;4.18;;;4.50;99.90;;;2.92;100.00;102359.91;4917091;28;20156;-79
2021/05/31 01:13:26;;;;;;;10.82;4.22;;;4.40;99.90;;;3.05;100.00;102350.53;4899047;28;20126;-78
2021/05/31 01:16:00;;;;;;;9.68;4.07;;;4.70;99.90;;;3.49;100.00;102350.91;4852655;28;20100;-78
2021/05/31 01:18:52;;;;;;;9.10;3.95;;;5.00;99.90;;;3.54;100.00;102352.69;4891795;28;20082;-78
2021/05/31 01:21:27;;;;;;;8.68;4.50;;;5.00;99.90;;;3.40;100.00;102357.78;4893853;28;20195;-79
2021/05/31 01:24:24;;;;;;;11.32;4.32;;;4.90;99.90;;;2.81;100.00;102369.34;4914803;28;20081;-78
2021/05/31 01:27:27;;;;;;;8.55;3.40;;;4.10;99.90;;;2.39;100.00;102367.91;4914671;28;20149;-78
2021/05/31 01:30:04;;;;;;;7.78;3.47;;;3.90;99.90;;;2.21;100.00;102361.63;4842181;28;20084;-78
2021/05/31 01:32:50;;;;;;;6.53;2.95;;;3.70;99.90;;;2.04;100.00;102360.50;4902296;28;20102;-78
2021/05/31 01:35:31;;;;;;;;;;;3.60;99.90;;;1.97;100.00;102356.06;4909716;28;20086;-79
2021/05/31 01:37:58;;;;;;;4.57;2.70;;;3.70;99.90;;;2.18;100.00;102356.38;4921817;28;19958;-79
2021/05/31 01:40:24;;;;;;;9.05;3.55;;;4.10;99.90;;;2.85;100.00;102351.16;4916661;28;20101;-78
2021/05/31 01:43:00;;;;;;;11.40;3.70;;;4.50;99.90;;;3.00;100.00;102350.47;4883470;28;20594;-78
2021/05/31 01:45:27;;;;;;;9.35;4.13;;;4.50;99.90;;;2.86;100.00;102352.03;4888372;28;20076;-78
2021/05/31 01:47:53;;;;;;;6.07;3.45;;;4.30;99.90;;;2.50;100.00;102352.47;4888165;28;20067;-78
2021/05/31 01:50:27;;;;;;;6.03;2.80;;;4.00;99.90;;;2.32;100.00;102355.69;4877866;28;20080;-78
2021/05/31 01:52:54;;;;;;;6.03;3.28;;;3.80;99.90;;;2.17;100.00;102351.16;4888563;28;20087;-79
2021/05/31 01:55:21;;;;;;;5.82;2.78;;;3.80;99.90;;;2.15;100.00;102347.66;4889069;28;20171;-78
2021/05/31 01:57:53;;;;;;;5.88;2.65;;;3.70;99.90;;;2.24;100.00;102351.25;4853137;28;20541;-78
2021/05/31 02:00:20;;;;;;;6.53;3.10;;;3.80;99.90;;;2.31;100.00;102351.34;4914541;28;20069;-78
2021/05/31 02:02:46;;;;;;;7.63;3.55;;;3.90;99.90;;;2.18;100.00;102351.19;4928525;28;20070;-78
2021/05/31 02:05:15;;;;;;;6.63;2.40;;;3.90;99.90;;;2.45;100.00;102355.00;4917084;28;20128;-78
2021/05/31 02:07:46;;;;;;;6.18;2.78;;;3.90;99.90;;;2.26;100.00;102354.75;4872082;28;20561;-78
2021/05/31 02:10:14;;;;;;;7.47;2.47;;;3.80;99.90;;;2.11;100.00;102348.47;4930152;28;20417;-80
2021/05/31 02:12:56;;;;;;;5.15;2.65;;;3.70;99.90;;;2.10;100.00;102346.75;4964672;28;20076;-78
2021/05/31 02:16:18;;;;;;;9.13;2.78;;;3.70;99.90;;;2.05;100.00;102338.84;4860937;28;20089;-78
2021/05/31 02:18:50;;;;;;;4.88;2.50;;;3.70;99.90;;;2.10;100.00;102345.00;4912481;28;20146;-78
2021/05/31 02:21:24;;;;;;;3.75;2.30;;;3.70;99.90;;;2.04;100.00;102340.59;4935946;28;20078;-78
2021/05/31 02:23:52;;;;;;;6.70;2.85;;;3.70;99.90;;;2.02;100.00;102339.69;4918033;28;20108;-78
2021/05/31 02:26:22;;;;;;;5.00;2.55;;;3.60;99.90;;;1.99;100.00;102336.19;4901639;28;20441;-78
2021/05/31 02:28:49;;;;;;;3.90;2.40;;;3.60;99.90;;;1.98;100.00;102337.03;4921980;28;20070;-79
2021/05/31 02:31:17;;;;;;;10.13;2.92;;;3.60;99.90;;;2.09;100.00;102331.97;4920693;28;20148;-78
2021/05/31 02:33:46;;;;;;;10.23;3.10;;;3.70;99.90;;;2.16;100.00;102337.31;4915849;28;20539;-78
2021/05/31 02:36:23;;;;;;;7.00;3.20;;;3.80;99.90;;;2.34;100.00;102338.41;4898710;28;20099;-78
2021/05/31 02:38:49;;;;;;;10.38;2.95;;;4.00;99.90;;;2.56;100.00;102347.34;4899807;28;20064;-79
2021/05/31 02:41:22;;;;;;;7.45;3.00;;;4.10;99.90;;;2.50;100.00;102342.06;4916589;28;20067;-78
2021/05/31 02:43:48;;;;;;;5.07;2.90;;;4.00;99.90;;;2.45;100.00;102339.41;4915746;28;20072;-78
2021/05/31 02:46:14;;;;;;;5.93;2.85;;;4.10;99.90;;;2.55;100.00;102341.28;4925960;28;20069;-78
2021/05/31 02:48:40;;;;;;;11.65;2.80;;;4.30;99.90;;;2.78;100.00;102338.94;4903737;28;20639;-78
2021/05/31 02:51:05;;;;;;;10.60;3.50;;;4.50;99.90;;;2.99;100.00;102338.28;4897090;28;20068;-78
2021/05/31 02:53:36;;;;;;;6.55;3.03;;;4.70;99.90;;;3.13;100.00;102338.44;4900132;28;20078;-78
2021/05/31 02:56:03;;;;;;;9.77;3.63;;;4.70;99.90;;;3.05;100.00;102335.75;4911241;28;20089;-79
2021/05/31 02:58:29;;;;;;;8.73;2.95;;;4.60;99.90;;;2.73;100.00;102343.22;4914905;28;20129;-79
2021/05/31 03:00:55;;;;;;;7.13;3.50;;;4.10;99.90;;;2.30;100.00;102336.59;4924441;28;20125;-78
2021/05/31 03:03:21;;;;;;;4.72;3.08;;;3.90;99.90;;;2.17;100.00;102339.03;4906754;28;20085;-78
2021/05/31 03:05:47;;;;;;;5.28;2.83;;;3.80;99.90;;;2.22;100.00;102347.75;4926006;28;20071;-78
2021/05/31 03:08:20;;;;;;;5.43;2.90;;;3.80;99.90;;;2.27;100.00;102337.44;4912705;28;20098;-78
2021/05/31 03:10:46;;;;;;;11.07;2.78;;;3.90;99.90;;;2.29;100.00;102345.25;4913520;28;20093;-78
2021/05/31 03:13:11;;;;;;;8.85;2.95;;;3.80;99.90;;;2.06;100.00;102335.41;4877503;28;20477;-78
2021/05/31 03:15:37;;;;;;;5.53;2.78;;;3.70;99.90;;;2.12;100.00;102337.25;4889053;28;20430;-78
2021/05/31 03:18:11;;;;;;;4.65;2.20;;;3.80;99.90;;;2.22;100.00;102342.56;4877112;28;20114;-79
2021/05/31 03:20:37;;;;;;;8.45;2.92;;;3.90;99.90;;;2.38;100.00;102335.84;4909787;28;20074;-78
2021/05/31 03:23:03;;;;;;;9.38;2.80;;;4.00;99.90;;;2.42;100.00;102341.97;4900189;28;20081;-78
2021/05/31 03:25:29;;;;;;;4.68;2.60;;;4.10;99.90;;;2.50;100.00;102342.06;4906846;28;20071;-78
2021/05/31 03:28:00;;;;;;;5.18;2.90;;;4.10;99.90;;;2.33;100.00;102340.09;4908723;28;20084;-78
2021/05/31 03:30:27;;;;;;;8.10;2.88;;;3.90;99.90;;;2.21;100.00;102338.22;4936267;28;20584;-78
2021/05/31 03:32:53;;;;;;;5.55;2.88;;;3.90;99.90;;;2.31;100.00;102340.94;4928106;28;20082;-78
2021/05/31 03:35:20;;;;;;;6.07;2.80;;;4.00;99.90;;;2.45;100.00;102336.81;4904726;28;20109;-78
2021/05/31 03:37:46;;;;;;;7.97;2.58;;;4.10;99.90;;;2.56;100.00;102337.81;4865323;28;20545;-77
2021/05/31 03:40:21;;;;;;;5.18;2.75;;;4.30;99.90;;;2.81;100.00;102332.91;4920757;28;20082;-78
2021/05/31 03:42:50;;;;;;;11.98;3.33;;;5.30;99.90;;;3.98;100.00;102329.59;4876536;28;20150;-78
2021/05/31 03:45:22;;;;;;;10.90;3.47;;;6.80;99.90;;;5.37;100.00;102317.88;4861745;28;20065;-78
2021/05/31 03:47:48;;;;;;;4.70;2.90;;;8.30;99.90;;;6.57;100.00;102318.53;4902796;28;20153;-79
2021/05/31 03:50:15;;;;;;;6.30;2.67;;;;;;;7.51;91.53;102310.06;4908584;28;20073;-79
2021/05/31 03:52:41;;;;;;;4.38;2.30;;;10.10;99.90;;;7.89;84.95;102308.00;4919663;28;20077;-79
2021/05/31 03:55:13;;;;;;;4.40;2.25;;;10.90;99.90;;;8.30;82.87;102310.16;4929167;28;20075;-79
2021/05/31 03:57:39;;;;;;;4.03;1.98;;;11.50;99.90;;;9.06;82.13;102310.03;4921650;28;20091;-79
2021/05/31 04:00:09;;;;;;;2.80;1.52;;;12.10;99.90;;;9.94;79.53;102309.44;4949513;28;20119;-79
2021/05/31 04:02:42;;;;;;;4.05;1.50;;;13.00;99.90;;;10.84;76.86;102306.75;4867238;28;20074;-79
2021/05/31 04:05:12;;;;;;;2.70;1.38;;;13.30;99.90;;;10.78;73.83;102309.53;4907989;28;20057;-79
2021/05/31 04:13:06;;;;;;;2.65;1.40;;;15.80;99.90;;;13.11;65.57;102290.94;4906175;28;20076;-80
2021/05/31 04:15:32;;;;;;;2.88;1.23;;;16.20;99.90;;;13.67;64.18;102295.25;4913819;28;25379;-80
2021/05/31 04:17:58;;;;;;;2.72;2.10;;;16.30;99.90;;;12.66;65.65;102294.09;4918630;28;20058;-80
2021/05/31 04:20:24;;;;;;;3.78;2.60;;;16.20;99.90;;;13.65;64.85;102292.69;4906508;28;20153;-79
2021/05/31 04:22:50;;;;;;;3.78;2.30;;;17.30;99.90;;;14.89;62.25;102291.66;4883195;28;20480;-80
2021/05/31 04:25:25;;;;;;;4.93;2.33;;;18.30;99.90;;;15.77;58.28;102289.78;4899399;28;20062;-79
2021/05/31 04:27:51;;;;;;;7.72;2.85;;;19.20;99.60;;;16.49;55.30;102287.44;4906732;28;20035;-80
2021/05/31 04:30:18;;;;;;;4.60;2.85;;;20.00;97.90;;;17.25;53.52;102287.38;4913031;28;20039;-80
2021/05/31 04:32:51;;;;;;;3.25;2.38;;;20.50;95.30;;;17.65;52.09;102291.53;4894230;28;20034;-80
2021/05/31 04:35:17;;;;;;;5.43;3.22;;;19.80;94.40;;;15.76;55.96;102301.31;4893661;28;20057;-80
2021/05/31 04:37:43;;;;;;;4.53;3.40;;;19.10;97.10;;;15.84;57.94;102295.66;4918410;28;20031;-80
2021/05/31 04:40:09;;;;;;;4.63;2.50;;;19.50;96.50;;;16.02;56.23;102299.28;4892407;28;20027;-80
2021/05/31 04:42:42;;;;;;;3.55;2.13;;;19.40;97.10;;;16.18;56.54;102295.03;4949122;28;20027;-80
2021/05/31 04:45:09;;;;;;;3.75;1.80;;;19.60;96.10;;;15.44;58.94;102293.81;4931434;28;20031;-80
2021/05/31 04:47:35;;;;;;;3.03;1.80;;;19.60;97.80;;;16.38;57.35;102290.59;4937606;28;20047;-80
2021/05/31 04:50:00;;;;;;;3.55;1.70;;;20.30;97.20;;;17.59;54.57;102292.69;4909576;28;20045;-80
2021/05/31 04:52:26;;;;;;;3.22;1.75;;;20.90;95.90;;;17.95;52.28;102289.09;4913531;28;20510;-80
2021/05/31 04:55:01;;;;;;;4.13;1.50;;;21.10;94.60;;;17.70;54.98;102284.16;4896916;28;20054;-80
2021/05/31 04:57:27;;;;;;;4.55;1.40;;;22.30;92.30;;;19.78;47.58;102281.44;4911344;28;20035;-80
2021/05/31 04:59:52;;;;;;;2.13;1.10;;;22.40;87.60;;;19.31;44.73;102289.59;4906721;28;20020;-80
2021/05/31 05:02:18;;;;;;;3.10;1.20;;;21.90;90.70;;;19.08;47.62;102290.94;4912115;28;20514;-80
2021/05/31 05:04:49;;;;;;;3.25;1.20;;;22.10;87.90;;;18.33;46.93;102293.31;4900685;28;20038;-80
2021/05/31 05:07:15;;;;;;;2.72;1.13;;;22.10;89.70;;;19.25;46.36;102288.16;4918374;28;20031;-80
2021/05/31 05:09:41;;;;;;;2.97;1.10;;;22.40;87.10;;;18.29;49.16;102287.28;4917871;28;20369;-80
2021/05/31 05:12:07;;;;;;;2.45;1.30;;;22.50;85.60;;;19.70;44.25;102278.38;4913278;28;20081;-79
2021/05/31 05:14:33;;;;;;;3.05;1.08;;;23.20;84.40;;;20.45;43.98;102280.84;4930101;28;20452;-80
2021/05/31 05:17:07;;;;;;;2.25;1.10;;;23.60;82.00;;;20.85;42.90;102281.84;4948456;28;20100;-80
2021/05/31 05:19:33;;;;;;;2.80;1.10;;;23.50;82.10;;;21.23;41.09;102272.22;4882471;28;20430;-80
2021/05/31 05:21:59;;;;;;;1.98;1.15;;;23.90;81.60;;;21.72;38.82;102279.63;4910944;28;20037;-80
2021/05/31 05:24:25;;;;;;;1.75;0.95;;;24.30;81.00;;;21.95;37.75;102285.22;4910690;28;20044;-80
2021/05/31 05:26:51;;;;;;;1.70;0.88;;;23.70;76.90;;;20.04;41.72;102292.34;4927190;28;20098;-80
2021/05/31 05:29:22;;;;;;;2.33;1.10;;;23.40;80.30;;;20.68;41.96;102296.31;4899395;28;20565;-80
2021/05/31 05:31:48;;;;;;;1.35;1.00;;;23.10;82.10;;;20.47;42.97;102290.53;4945635;28;20071;-80
2021/05/31 05:34:14;;;;;;;1.70;0.90;;;23.60;79.30;;;20.77;41.63;102286.00;4925946;28;20114;-80
2021/05/31 05:37:01;;;;;;;5.40;0.88;;;24.10;81.70;;;21.14;43.67;102289.75;4875641;28;20042;-80
2021/05/31 05:42:19;;;;;;;3.63;1.02;;;23.50;74.50;;;20.13;40.84;102291.78;4939772;28;20024;-80
2021/05/31 05:45:09;;;;;;;2.73;0.70;;;24.20;76.80;;;22.00;39.05;102293.78;4925936;28;20369;-80
2021/05/31 05:47:49;;;;;;;2.05;0.90;;;24.60;74.30;;;23.32;35.96;102289.56;4918592;28;20044;-80
2021/05/31 05:50:19;;;;;;;2.72;1.10;;;25.40;72.70;;;23.10;37.32;102296.56;4908390;28;20045;-80
2021/05/31 05:52:50;;;;;;;4.72;1.02;;;25.00;71.70;;;21.44;38.58;102305.63;4910911;28;20031;-80
2021/05/31 05:55:17;;;;;;;1.35;0.80;;;24.60;70.10;;;23.42;33.87;102301.34;4914503;28;20053;-80
2021/05/31 05:57:43;;;;;;;1.83;0.82;;;25.30;67.70;;;23.21;34.51;102300.28;4912768;28;20058;-80
2021/05/31 06:00:22;;;;;;;1.35;0.65;;;25.60;66.70;;;22.30;35.73;102305.06;4892834;28;20407;-80
2021/05/31 06:02:49;;;;;;;2.33;0.90;;;25.00;66.90;;;20.80;36.11;102307.19;4932472;28;20051;-80
2021/05/31 06:05:25;;;;;;;2.30;0.93;;;24.00;70.20;;;20.31;38.80;102305.81;4892611;28;20064;-80
2021/05/31 06:07:52;;;;;;;2.00;0.65;;;23.50;70.00;;;21.25;36.60;102302.44;4881839;28;21343;-79
2021/05/31 06:10:18;;;;;;;2.88;0.90;;;23.70;72.40;;;21.58;36.62;102303.88;4902577;28;20050;-80
2021/05/31 06:12:48;;;;;;;1.27;0.70;;;23.70;68.20;;;21.98;34.06;102298.41;4904397;28;20031;-80
2021/05/31 06:15:16;;;;;;;1.80;0.70;;;24.70;67.60;;;23.39;31.10;102295.31;4900419;28;20040;-80
2021/05/31 06:17:42;;;;;;;2.38;0.80;;;24.00;65.00;;;23.06;31.48;102305.81;4906911;28;20036;-80
2021/05/31 06:20:09;;;;;;;2.60;1.00;;;24.00;64.60;;;22.03;34.70;102306.97;4930842;28;20039;-80
2021/05/31 06:22:45;;;;;;;2.88;1.10;;;23.80;67.70;;;21.81;34.88;102295.06;4915001;28;20028;-80
2021/05/31 06:25:12;;;;;;;1.58;1.00;;;24.30;64.40;;;21.96;32.59;102297.66;4901979;28;20051;-80
2021/05/31 06:27:38;;;;;;;1.35;0.75;;;24.60;66.20;;;23.84;31.87;102293.63;4908953;28;20502;-80
2021/05/31 06:30:09;;;;;;;2.95;0.70;;;24.80;64.80;;;24.00;30.45;102290.59;4915200;28;20039;-79
2021/05/31 06:32:35;;;;;;;2.13;0.90;;;25.30;65.30;;;24.27;31.09;102303.69;4942592;28;20047;-80
2021/05/31 06:35:01;;;;;;;2.45;0.88;;;25.40;64.80;;;24.87;29.89;102296.16;4931683;28;20118;-80
2021/05/31 06:37:27;;;;;;;2.53;1.00;;;25.40;64.20;;;22.99;34.17;102301.84;4923694;28;20422;-80
2021/05/31 06:39:53;;;;;;;2.17;0.77;;;25.40;65.50;;;24.17;32.62;102291.97;4915979;28;20027;-80
2021/05/31 06:42:19;;;;;;;2.47;1.00;;;25.90;65.60;;;24.56;31.17;102289.75;4900322;28;20549;-80
2021/05/31 06:44:49;;;;;;;1.95;0.90;;;25.80;64.90;;;24.57;32.21;102288.75;4875712;28;20039;-80
2021/05/31 06:47:15;;;;;;;1.60;1.00;;;25.10;63.30;;;23.78;32.51;102283.38;4923708;28;20039;-80
2021/05/31 06:49:44;;;;;;;2.22;0.90;;;25.10;67.00;;;24.67;31.64;102284.34;4905601;28;20060;-81
2021/05/31 06:52:09;;;;;;;1.73;0.75;;;25.20;64.50;;;24.74;29.63;102284.69;4869901;28;20027;-80
2021/05/31 06:54:38;;;;;;;2.13;0.98;;;25.10;65.60;;;24.23;31.22;102291.44;4914966;28;20031;-80
2021/05/31 06:57:07;;;;;;;2.15;0.80;;;24.00;64.70;;;22.81;32.94;102285.28;4922579;28;20043;-81
2021/05/31 06:59:33;;;;;;;2.90;0.95;;;24.50;67.00;;;21.45;35.48;102299.31;4905214;28;20027;-81
2021/05/31 07:01:59;;;;;;;2.08;0.80;;;23.50;70.50;;;21.84;37.57;102291.34;4928845;28;20039;-80
2021/05/31 07:04:24;;;;;;;1.63;1.00;;;23.80;71.20;;;22.80;35.54;102285.38;4903711;28;20403;-81
2021/05/31 07:06:50;;;;;;;3.17;1.00;;;24.40;67.50;;;24.42;31.67;102274.66;4904395;28;20028;-81
2021/05/31 07:09:20;;;;;;;3.00;1.20;;;25.10;66.30;;;24.57;32.86;102280.69;4901391;28;20049;-81
2021/05/31 07:11:47;;;;;;;2.17;1.00;;;24.80;70.60;;;23.80;33.60;102276.03;4904700;28;20039;-81
2021/05/31 07:14:43;;;;;;;2.40;0.90;;;25.40;68.10;;;25.41;31.08;102270.09;5019337;27;20384;-82
2021/05/31 07:17:10;;;;;;;2.03;1.20;;;25.70;64.70;;;24.85;32.29;102281.94;5027148;28;20076;-82
2021/05/31 07:19:36;;;;;;;3.78;1.20;;;25.90;64.40;;;25.99;29.61;102273.16;4967982;28;20026;-82
2021/05/31 07:22:02;;;;;;;1.05;1.00;;;26.00;64.70;;;26.27;29.41;102280.66;4977635;28;20052;-82
2021/05/31 07:24:32;;;;;;;1.90;1.02;;;25.70;63.80;;;25.13;29.61;102271.56;4998219;28;20024;-82
2021/05/31 07:26:58;;;;;;;2.45;0.90;;;24.80;66.50;;;24.33;30.62;102257.44;4996910;28;20021;-82
2021/05/31 07:29:24;;;;;;;1.60;1.00;;;23.80;69.30;;;24.74;31.33;102265.81;5023793;28;20369;-81
2021/05/31 07:31:50;;;;;;;1.98;0.88;;;24.50;67.50;;;24.39;31.87;102260.63;4987370;28;20177;-79
2021/05/31 07:34:16;;;;;;;2.95;0.90;;;24.70;67.20;;;24.29;33.45;102250.56;5025476;28;20364;-79
2021/05/31 07:36:42;;;;;;;2.22;1.17;;;25.10;67.00;;;25.81;30.20;102253.19;4988923;28;20510;-80
2021/05/31 07:39:10;;;;;;;2.55;1.20;;;24.90;63.20;;;24.18;32.21;102258.66;5020730;28;20492;-79
2021/05/31 07:41:41;;;;;;;1.95;0.93;;;25.30;66.00;;;23.30;31.34;102253.88;4997610;28;23458;-79
2021/05/31 07:44:08;;;;;;;4.43;1.10;;;;;;;23.72;33.31;102254.22;4991589;28;20024;-79
2021/05/31 07:46:34;;;;;;;2.00;1.00;;;23.70;68.60;;;24.27;32.57;102249.84;5006596;28;20462;-79
2021/05/31 07:48:59;;;;;;;3.35;1.30;;;23.80;68.00;;;23.72;34.19;102247.00;5002325;28;20040;-81
2021/05/31 07:51:26;;;;;;;3.42;0.90;;;24.60;68.90;;;24.73;32.07;102246.13;4995265;28;20029;-80
2021/05/31 07:53:59;;;;;;;3.72;1.17;;;25.00;66.60;;;25.42;30.30;102244.88;5019901;28;20041;-79
2021/05/31 07:56:27;;;;;;;1.52;0.90;;;24.80;65.30;;;24.50;30.70;102253.41;5022343;28;20046;-82
2021/05/31 07:58:56;;;;;;;2.95;1.00;;;24.50;67.40;;;24.32;32.09;102244.13;4988114;28;20111;-82
2021/05/31 08:01:29;;;;;;;2.45;1.05;;;24.60;66.50;;;23.99;32.64;102244.97;4976896;28;20079;-81
2021/05/31 08:03:55;;;;;;;3.63;1.05;;;24.60;66.40;;;24.27;31.81;102243.63;4968182;28;20279;-83
2021/05/31 08:06:21;;;;;;;1.90;1.05;;;23.00;69.60;;;21.30;36.27;102246.75;4989698;28;23274;-81
2021/05/31 08:08:47;;;;;;;1.73;0.93;;;22.40;77.00;;;19.40;40.69;102233.81;5001879;28;20075;-80
2021/05/31 08:11:19;;;;;;;2.95;1.33;;;22.00;76.90;;;21.18;40.32;102232.34;4984611;28;20141;-81
2021/05/31 08:13:45;;;;;;;4.32;0.85;;;22.80;73.30;;;22.81;34.87;102231.56;5020941;28;20038;-81
2021/05/31 08:16:16;;;;;;;1.90;0.85;;;23.30;70.90;;;22.84;35.41;102235.84;4996793;28;20144;-81
2021/05/31 08:18:49;;;;;;;1.80;0.90;;;23.50;70.00;;;22.91;34.49;102237.09;4978095;28;20108;-81
2021/05/31 08:21:16;;;;;;;6.28;1.23;;;23.70;71.60;;;22.58;36.85;102235.97;4951184;28;20597;-80
2021/05/31 08:23:42;;;;;;;1.30;0.80;;;24.00;72.00;;;21.83;38.92;102227.94;4975185;28;20041;-80
2021/05/31 08:26:08;;;;;;;1.33;0.85;;;24.00;70.50;;;22.98;33.99;102222.25;4988532;28;20022;-80
2021/05/31 08:28:41;;;;;;;1.80;0.98;;;23.20;69.60;;;22.85;35.16;102219.63;4940389;28;20085;-81
2021/05/31 08:31:08;;;;;;;5.55;1.02;;;23.30;70.00;;;22.12;35.63;102233.91;4949670;28;20096;-80
2021/05/31 08:33:34;;;;;;;5.55;1.02;;;22.60;71.40;;;21.69;36.49;102234.28;4976931;28;20045;-80
2021/05/31 08:36:02;;;;;;;5.50;2.00;;;22.30;73.10;;;21.70;38.11;102230.63;4990851;28;24859;-80
2021/05/31 08:38:31;;;;;;;2.95;1.10;;;22.80;73.60;;;21.66;35.69;102227.31;4931036;28;20452;-80
2021/05/31 08:40:57;;;;;;;3.42;1.30;;;23.10;72.30;;;21.81;37.28;102224.50;4960793;28;20025;-80
2021/05/31 08:43:23;;;;;;;1.77;0.88;;;22.40;75.60;;;21.68;38.97;102225.38;5001003;28;20051;-80
2021/05/31 08:45:49;;;;;;;2.92;0.95;;;22.60;73.60;;;21.85;36.19;102229.53;4995418;28;20067;-79
2021/05/31 08:48:17;;;;;;;2.05;1.17;;;22.30;74.30;;;21.66;37.17;102223.75;4989173;28;20079;-79
2021/05/31 08:50:52;;;;;;;3.28;1.20;;;22.50;73.40;;;21.75;35.87;102224.94;4972021;28;20040;-81
2021/05/31 08:53:20;;;;;;;1.80;1.02;;;22.40;72.10;;;21.24;37.02;102220.38;4973545;28;20542;-80
2021/05/31 08:55:49;;;;;;;2.20;1.00;;;20.80;74.30;;;19.86;39.10;102225.69;4994339;28;20029;-80
2021/05/31 08:58:16;;;;;;;1.48;0.88;;;20.80;77.30;;;20.34;40.23;102229.84;5000046;28;20440;-80
2021/05/31 09:00:50;;;;;;;1.85;1.15;;;21.60;76.70;;;20.93;38.95;102217.09;4989003;28;20035;-80
2021/05/31 09:03:45;;;;;;;1.92;1.13;;;21.90;74.90;;;21.20;37.70;102219.72;4905281;28;20428;-80
2021/05/31 09:06:18;;;;;;;3.53;0.98;;;21.90;74.30;;;21.16;37.06;102212.84;4922509;28;20025;-79
2021/05/31 09:09:09;;;;;;;1.92;1.00;;;21.70;73.70;;;21.06;38.66;102209.97;4920070;28;20405;-80
2021/05/31 09:12:11;;;;;;;5.18;1.17;;;21.50;77.50;;;20.51;42.20;102210.06;4912283;28;20039;-80
2021/05/31 09:15:05;;;;;;;11.20;3.47;;;21.80;78.50;;;21.08;38.67;102205.34;4924996;28;20131;-80
2021/05/31 09:17:35;;;;;;;3.65;1.10;;;21.50;76.80;;;20.39;38.96;102206.34;4918195;28;20516;-80
2021/05/31 09:20:45;;;;;;;4.70;1.60;;;21.40;77.30;;;20.98;39.28;102204.25;4897330;28;20025;-80
2021/05/31 09:24:12;;;;;;;2.83;1.20;;;21.60;80.40;;;20.12;41.46;102201.81;4925841;28;20051;-80
2021/05/31 09:27:31;;;;;;;3.47;1.13;;;21.30;77.00;;;20.87;38.27;102204.97;4934299;28;20235;-80
2021/05/31 09:30:23;;;;;;;5.50;1.50;;;21.40;78.60;;;20.75;39.73;102196.91;4880775;28;21475;-80
2021/05/31 09:32:53;;;;;;;3.90;1.38;;;21.40;75.50;;;20.92;37.52;102199.31;4914079;28;21939;-80
2021/05/31 09:35:25;;;;;;;3.15;1.30;;;21.40;78.50;;;20.95;39.32;102193.75;4898160;28;20452;-80
2021/05/31 09:38:40;;;;;;;2.67;1.08;;;21.40;75.40;;;20.75;36.84;102192.41;4885962;28;20025;-79
2021/05/31 09:41:10;;;;;;;3.83;1.58;;;21.30;77.80;;;20.70;37.27;102186.50;4930262;28;20028;-81
2021/05/31 09:43:38;;;;;;;2.53;1.10;;;21.30;79.00;;;21.10;39.33;102179.31;4900668;28;20089;-80
2021/05/31 09:46:49;;;;;;;2.47;1.25;;;21.70;78.70;;;21.34;38.12;102183.97;4907504;28;20038;-80
2021/05/31 09:50:03;;;;;;;4.70;1.25;;;22.10;78.90;;;21.35;36.71;102182.13;4932465;28;20032;-79
2021/05/31 09:52:55;;;;;;;2.45;1.40;;;21.80;78.40;;;20.63;39.36;102183.38;4948095;28;20269;-79
2021/05/31 09:55:52;;;;;;;3.92;1.38;;;21.90;75.70;;;21.44;36.37;102174.34;4920940;28;20025;-80
2021/05/31 09:58:19;;;;;;;4.45;1.75;;;22.20;76.80;;;21.48;41.00;102175.84;4980920;28;20567;-81
2021/05/31 10:01:39;;;;;;;5.93;1.50;;;22.20;74.30;;;21.34;40.28;102175.94;4875749;28;20026;-80
2021/05/31 10:04:19;;;;;;;2.63;1.30;;;22.30;76.80;;;21.07;38.27;102165.28;4960350;28;20047;-81
2021/05/31 10:10:24;;;;;;;2.22;1.38;;;21.20;80.20;;;19.88;41.38;102172.16;4935813;28;20085;-81
2021/05/31 10:13:44;;;;;;;4.90;1.98;;;20.90;82.60;;;20.33;39.97;102155.94;4896970;28;20041;-81
2021/05/31 10:17:02;;;;;;;2.40;1.60;;;21.60;77.20;;;20.83;39.04;102152.59;4918625;28;20041;-82
2021/05/31 10:19:45;;;;;;;5.30;1.73;;;21.60;79.60;;;20.90;39.14;102153.88;4935256;28;20084;-80
2021/05/31 10:23:01;;;;;;;;;;;;;;;;;;;;;
2021/05/31 10:25:39;;;;;;;3.97;1.77;;;22.80;80.50;;;21.43;43.80;102155.72;4918167;28;20247;-81
2021/05/31 10:29:04;;;;;;;2.97;1.50;;;22.90;82.30;;;21.80;39.75;102161.13;4928305;28;20033;-81
2021/05/31 10:32:07;;;;;;;4.63;1.90;;;22.30;80.70;;;20.54;43.26;102157.19;4903701;28;20113;-83
2021/05/31 10:35:33;;;;;;;2.42;1.67;;;21.50;83.40;;;20.69;42.18;102153.53;4900989;28;20124;-80
2021/05/31 10:38:59;;;;;;;7.40;1.80;;;21.60;84.50;;;21.15;42.03;102154.91;4947562;28;20045;-80
2021/05/31 10:42:22;;;;;;;4.93;1.52;;;22.00;82.90;;;21.56;44.74;102147.66;4902363;28;20045;-80
2021/05/31 10:45:35;;;;;;;5.05;1.70;;;22.10;83.80;;;21.05;43.38;102151.13;4927485;28;20398;-80
2021/05/31 10:49:04;;;;;;;3.25;1.50;;;22.40;80.90;;;22.05;42.25;102138.75;4907487;28;20067;-80
2021/05/31 10:52:15;;;;;;;7.00;1.90;;;22.00;84.50;;;20.97;46.22;102134.72;4919368;28;20037;-81
2021/05/31 10:54:49;;;;;;;5.32;1.70;;;21.90;84.90;;;21.18;42.63;102135.09;4927660;28;20071;-80
2021/05/31 10:57:46;;;;;;;3.03;1.50;;;22.00;81.10;;;21.60;39.48;102135.75;4911648;28;20047;-81